Pagina principală
METAR-TAF:

METAR-TAF

Aeroporturi :

Madison, Mississippi, Statele Unite ale Americii

Latitudine: 32-26-19N, longitudine: 090-06-11W, elevație: 99 m

Observații meteo curente

Raportul a fost făcut în urmă cu 32 de minute, la 20:55 UTC
Vânt calm
Temperatură 33°C
Umiditate 46%
Presiune 1016 hPa
Vizibilitate: 16.1 km
Nori puțini la o înălțime de 6500 picior

METAR: KMBO 222055Z AUTO 00000KT 10SM FEW065 33/20 A3000 RMK AO2

Ora: 16:27 (21:27 UTC)


TAF: lipsă

Observații și prognoze meteo pentru peste 4.000 de aeroporturi (rapoarte METAR și TAF).

Stațiile disponibile sunt reprezentate pe hartă prin puncte galbene și roșii.

Țineți indicatorul mouse-ului pe punctul dorit pentru a vedea denumirea stației.

Apoi, faceți clic pentru a vedea observațiile și prognozele meteorologice.

Pentru a schimba harta: Pentru mărire, faceți clic pe butoanele verzi cu cruce neagră; pentru micșorare, pe butonul verde cu o liniuță; pentru hărți învecinate, pe săgețile verzi.


METAR-TAF: